AFR617 KMIA-TFFR
Flight info
| Callsign | AFR617 |
|---|---|
| Flight time | 2h 41m |
| Altitude | 37000 |
| Route | KLADA2 BITAC Y290 HAGIT Y421 MEEGL DCT MODUX R888 GORET GORET2A |
| Aircraft | A320/M-SDE2E3FGIJ1RWY/HB1 |
Departure
| Time | 2026-04-26 14:53 |
|---|---|
| Airport | Miami International Airport (KMIA) |
Arrival
| Time | 2026-04-26 17:34 |
|---|---|
| Airport | Maryse Condé International Airport (TFFR) |
| Time | Latitude | Longitude | Altitude | Speed | Heading |
|---|---|---|---|---|---|
| 2026-04-26 14:18 | 25.79246 | -80.27304 | 17 ft | 0 kts | 270° |
| 2026-04-26 14:41 | 25.79246 | -80.27295 | 15 ft | 4 kts | 270° |
| 2026-04-26 14:42 | 25.79245 | -80.27266 | 17 ft | 4 kts | 270° |
| 2026-04-26 14:42 | 25.79245 | -80.27242 | 17 ft | 4 kts | 250° |
| 2026-04-26 14:42 | 25.79260 | -80.27227 | 17 ft | 3 kts | 178° |
| 2026-04-26 14:42 | 25.79280 | -80.27228 | 16 ft | 0 kts | 177° |
| 2026-04-26 14:45 | 25.79235 | -80.27226 | 16 ft | 14 kts | 180° |
| 2026-04-26 14:45 | 25.79157 | -80.27227 | 15 ft | 19 kts | 179° |
| 2026-04-26 14:45 | 25.78976 | -80.27219 | 16 ft | 20 kts | 184° |
| 2026-04-26 14:45 | 25.78925 | -80.27332 | 15 ft | 18 kts | 266° |
| 2026-04-26 14:46 | 25.78915 | -80.27478 | 15 ft | 20 kts | 260° |
| 2026-04-26 14:46 | 25.78886 | -80.27630 | 15 ft | 21 kts | 259° |
| 2026-04-26 14:46 | 25.78876 | -80.27791 | 15 ft | 21 kts | 273° |
| 2026-04-26 14:46 | 25.78940 | -80.27938 | 16 ft | 22 kts | 299° |
| 2026-04-26 14:47 | 25.79017 | -80.28087 | 15 ft | 23 kts | 299° |
| 2026-04-26 14:47 | 25.79101 | -80.28250 | 15 ft | 25 kts | 301° |
| 2026-04-26 14:47 | 25.79207 | -80.28408 | 15 ft | 26 kts | 324° |
| 2026-04-26 14:47 | 25.79304 | -80.28577 | 15 ft | 27 kts | 299° |
| 2026-04-26 14:48 | 25.79398 | -80.28761 | 15 ft | 28 kts | 299° |
| 2026-04-26 14:48 | 25.79501 | -80.28964 | 15 ft | 32 kts | 300° |
| 2026-04-26 14:48 | 25.79613 | -80.29183 | 15 ft | 33 kts | 300° |
| 2026-04-26 14:48 | 25.79726 | -80.29404 | 15 ft | 33 kts | 299° |
| 2026-04-26 14:49 | 25.79837 | -80.29621 | 15 ft | 30 kts | 300° |
| 2026-04-26 14:49 | 25.79918 | -80.29793 | 14 ft | 19 kts | 294° |
| 2026-04-26 14:49 | 25.79969 | -80.29931 | 13 ft | 20 kts | 286° |
| 2026-04-26 14:49 | 25.79973 | -80.29950 | 13 ft | 0 kts | 286° |
| 2026-04-26 14:51 | 25.79988 | -80.30007 | 13 ft | 14 kts | 285° |
| 2026-04-26 14:51 | 25.80068 | -80.30046 | 13 ft | 13 kts | 50° |
| 2026-04-26 14:51 | 25.80078 | -80.29970 | 13 ft | 0 kts | 88° |
| 2026-04-26 14:52 | 25.80087 | -80.29687 | 14 ft | 74 kts | 88° |
| 2026-04-26 14:52 | 25.80124 | -80.28890 | 17 ft | 133 kts | 87° |
| 2026-04-26 14:52 | 25.80171 | -80.27665 | 21 ft | 179 kts | 87° |
| 2026-04-26 14:53 | 25.80228 | -80.26245 | 432 ft | 187 kts | 92° |
| 2026-04-26 14:53 | 25.80038 | -80.24834 | 1075 ft | 184 kts | 113° |
| 2026-04-26 14:53 | 25.79505 | -80.23558 | 1844 ft | 183 kts | 119° |
| 2026-04-26 14:53 | 25.78882 | -80.22262 | 2259 ft | 201 kts | 120° |
| 2026-04-26 14:54 | 25.78172 | -80.20813 | 2570 ft | 225 kts | 120° |
| 2026-04-26 14:54 | 25.77394 | -80.19199 | 3001 ft | 250 kts | 119° |
| 2026-04-26 14:54 | 25.76561 | -80.17441 | 3701 ft | 262 kts | 119° |
| 2026-04-26 14:54 | 25.75678 | -80.15649 | 4521 ft | 267 kts | 120° |
| 2026-04-26 14:55 | 25.74771 | -80.13838 | 5340 ft | 270 kts | 120° |
| 2026-04-26 14:55 | 25.73851 | -80.12002 | 6144 ft | 274 kts | 120° |
| 2026-04-26 14:55 | 25.73045 | -80.10065 | 6881 ft | 280 kts | 111° |
| 2026-04-26 14:55 | 25.72360 | -80.08022 | 7574 ft | 286 kts | 111° |
| 2026-04-26 14:56 | 25.71667 | -80.05933 | 8298 ft | 291 kts | 110° |
| 2026-04-26 14:56 | 25.70965 | -80.03805 | 9026 ft | 296 kts | 110° |
| 2026-04-26 14:56 | 25.70251 | -80.01641 | 9745 ft | 302 kts | 110° |
| 2026-04-26 14:56 | 25.69520 | -79.99431 | 10301 ft | 313 kts | 110° |
| 2026-04-26 14:57 | 25.68742 | -79.97082 | 10508 ft | 336 kts | 110° |
| 2026-04-26 14:57 | 25.67913 | -79.94578 | 10818 ft | 353 kts | 110° |
| 2026-04-26 14:57 | 25.67060 | -79.92001 | 11396 ft | 360 kts | 109° |
| 2026-04-26 14:57 | 25.66189 | -79.89377 | 12047 ft | 365 kts | 109° |
| 2026-04-26 14:58 | 25.65336 | -79.86815 | 12678 ft | 369 kts | 109° |
| 2026-04-26 14:58 | 25.64440 | -79.84127 | 13313 ft | 373 kts | 109° |
| 2026-04-26 14:58 | 25.63536 | -79.81414 | 13917 ft | 378 kts | 109° |
| 2026-04-26 14:58 | 25.62621 | -79.78666 | 14480 ft | 382 kts | 109° |
| 2026-04-26 14:59 | 25.61699 | -79.75899 | 15045 ft | 385 kts | 109° |
| 2026-04-26 14:59 | 25.60769 | -79.73108 | 15630 ft | 388 kts | 109° |
| 2026-04-26 14:59 | 25.59831 | -79.70295 | 16197 ft | 391 kts | 109° |
| 2026-04-26 14:59 | 25.59194 | -79.68425 | 16559 ft | 393 kts | 109° |
| 2026-04-26 15:00 | 25.57836 | -79.64641 | 17317 ft | 397 kts | 110° |
| 2026-04-26 15:00 | 25.56783 | -79.61798 | 17864 ft | 401 kts | 110° |
| 2026-04-26 15:00 | 25.55726 | -79.58970 | 18376 ft | 404 kts | 110° |
| 2026-04-26 15:00 | 25.54649 | -79.56082 | 18830 ft | 407 kts | 110° |
| 2026-04-26 15:01 | 25.53573 | -79.53173 | 19271 ft | 410 kts | 110° |
| 2026-04-26 15:01 | 25.52493 | -79.50234 | 19713 ft | 414 kts | 110° |
| 2026-04-26 15:01 | 25.51408 | -79.47267 | 20157 ft | 417 kts | 110° |
| 2026-04-26 15:01 | 25.50316 | -79.44276 | 20586 ft | 421 kts | 110° |
| 2026-04-26 15:02 | 25.49215 | -79.41262 | 21012 ft | 424 kts | 110° |
| 2026-04-26 15:02 | 25.48103 | -79.38228 | 21444 ft | 427 kts | 110° |
| 2026-04-26 15:02 | 25.46979 | -79.35167 | 21861 ft | 431 kts | 110° |
| 2026-04-26 15:02 | 25.45845 | -79.32085 | 22281 ft | 434 kts | 110° |
| 2026-04-26 15:03 | 25.44700 | -79.28979 | 22682 ft | 438 kts | 110° |
| 2026-04-26 15:03 | 25.43543 | -79.25847 | 23083 ft | 441 kts | 110° |
| 2026-04-26 15:03 | 25.42376 | -79.22693 | 23496 ft | 444 kts | 110° |
| 2026-04-26 15:03 | 25.41204 | -79.19517 | 23835 ft | 448 kts | 110° |
| 2026-04-26 15:04 | 25.40026 | -79.16323 | 24181 ft | 450 kts | 110° |
| 2026-04-26 15:04 | 25.38840 | -79.13109 | 24525 ft | 452 kts | 110° |
| 2026-04-26 15:04 | 25.37645 | -79.09878 | 24861 ft | 455 kts | 110° |
| 2026-04-26 15:04 | 25.36445 | -79.06636 | 25204 ft | 457 kts | 110° |
| 2026-04-26 15:05 | 25.35240 | -79.03379 | 25541 ft | 459 kts | 110° |
| 2026-04-26 15:05 | 25.34846 | -79.02318 | 25636 ft | 460 kts | 110° |
| 2026-04-26 15:05 | 25.32807 | -78.96812 | 26196 ft | 464 kts | 110° |
| 2026-04-26 15:05 | 25.31583 | -78.93513 | 26514 ft | 466 kts | 110° |
| 2026-04-26 15:06 | 25.30349 | -78.90192 | 26833 ft | 468 kts | 110° |
| 2026-04-26 15:06 | 25.29109 | -78.86858 | 27146 ft | 470 kts | 110° |
| 2026-04-26 15:06 | 25.27862 | -78.83504 | 27455 ft | 472 kts | 111° |
| 2026-04-26 15:06 | 25.26608 | -78.80140 | 27770 ft | 475 kts | 111° |
| 2026-04-26 15:07 | 25.24082 | -78.73370 | 28396 ft | 479 kts | 111° |
| 2026-04-26 15:07 | 25.22812 | -78.69965 | 28692 ft | 481 kts | 111° |
| 2026-04-26 15:07 | 25.21532 | -78.66537 | 28986 ft | 483 kts | 111° |
| 2026-04-26 15:08 | 25.20264 | -78.63146 | 29263 ft | 485 kts | 111° |
| 2026-04-26 15:08 | 25.18973 | -78.59695 | 29544 ft | 487 kts | 111° |
| 2026-04-26 15:08 | 25.17670 | -78.56233 | 29823 ft | 489 kts | 112° |
| 2026-04-26 15:08 | 25.16315 | -78.52783 | 30070 ft | 491 kts | 113° |
| 2026-04-26 15:09 | 25.14905 | -78.49342 | 30299 ft | 493 kts | 114° |
| 2026-04-26 15:09 | 25.13460 | -78.45897 | 30531 ft | 495 kts | 114° |
| 2026-04-26 15:09 | 25.12008 | -78.42451 | 30752 ft | 496 kts | 114° |
| 2026-04-26 15:09 | 25.10560 | -78.38999 | 31055 ft | 496 kts | 114° |
| 2026-04-26 15:10 | 25.09128 | -78.35549 | 31384 ft | 494 kts | 114° |
| 2026-04-26 15:10 | 25.08184 | -78.33258 | 31596 ft | 494 kts | 114° |
| 2026-04-26 15:10 | 25.06295 | -78.28645 | 32020 ft | 493 kts | 114° |
| 2026-04-26 15:10 | 25.04887 | -78.25200 | 32326 ft | 492 kts | 114° |
| 2026-04-26 15:11 | 25.03485 | -78.21773 | 32637 ft | 491 kts | 114° |
| 2026-04-26 15:11 | 25.02074 | -78.18336 | 32952 ft | 491 kts | 114° |
| 2026-04-26 15:11 | 25.00664 | -78.14919 | 33264 ft | 490 kts | 114° |
| 2026-04-26 15:11 | 24.99249 | -78.11501 | 33579 ft | 489 kts | 115° |
| 2026-04-26 15:12 | 24.97835 | -78.08091 | 33893 ft | 488 kts | 115° |
| 2026-04-26 15:12 | 24.96427 | -78.04694 | 34185 ft | 487 kts | 115° |
| 2026-04-26 15:12 | 24.95493 | -78.02442 | 34362 ft | 487 kts | 115° |
| 2026-04-26 15:12 | 24.94087 | -77.99049 | 34607 ft | 487 kts | 115° |
| 2026-04-26 15:13 | 24.92681 | -77.95657 | 34834 ft | 487 kts | 115° |
| 2026-04-26 15:13 | 24.91277 | -77.92263 | 35062 ft | 487 kts | 115° |
| 2026-04-26 15:13 | 24.89872 | -77.88873 | 35276 ft | 487 kts | 115° |
| 2026-04-26 15:13 | 24.88464 | -77.85483 | 35474 ft | 487 kts | 115° |
| 2026-04-26 15:14 | 24.87052 | -77.82095 | 35684 ft | 487 kts | 116° |
| 2026-04-26 15:14 | 24.85640 | -77.78711 | 35871 ft | 487 kts | 116° |
| 2026-04-26 15:14 | 24.84222 | -77.75317 | 36057 ft | 487 kts | 116° |
| 2026-04-26 15:14 | 24.82807 | -77.71930 | 36235 ft | 487 kts | 116° |
| 2026-04-26 15:15 | 24.81392 | -77.68540 | 36420 ft | 487 kts | 116° |
| 2026-04-26 15:15 | 24.79979 | -77.65153 | 36598 ft | 487 kts | 116° |
| 2026-04-26 15:15 | 24.78568 | -77.61767 | 36770 ft | 487 kts | 116° |
| 2026-04-26 15:15 | 24.77150 | -77.58374 | 36946 ft | 487 kts | 116° |
| 2026-04-26 15:16 | 24.74296 | -77.51610 | 37022 ft | 487 kts | 117° |
| 2026-04-26 15:16 | 24.71289 | -77.44944 | 37021 ft | 487 kts | 119° |
| 2026-04-26 15:17 | 24.68716 | -77.39441 | 37021 ft | 486 kts | 119° |
| 2026-04-26 15:17 | 24.65121 | -77.31700 | 37020 ft | 486 kts | 119° |
| 2026-04-26 15:18 | 24.62088 | -77.25050 | 37023 ft | 487 kts | 119° |
| 2026-04-26 15:18 | 24.59056 | -77.18399 | 37025 ft | 487 kts | 119° |
| 2026-04-26 15:19 | 24.56027 | -77.11805 | 37029 ft | 487 kts | 119° |
| 2026-04-26 15:19 | 24.52959 | -77.05171 | 37030 ft | 487 kts | 119° |
| 2026-04-26 15:20 | 24.49901 | -76.98536 | 37028 ft | 487 kts | 119° |
| 2026-04-26 15:20 | 24.46841 | -76.91905 | 37030 ft | 487 kts | 120° |
| 2026-04-26 15:21 | 24.43779 | -76.85271 | 37028 ft | 487 kts | 120° |
| 2026-04-26 15:21 | 24.40710 | -76.78639 | 37029 ft | 487 kts | 120° |
| 2026-04-26 15:22 | 24.37635 | -76.72014 | 37029 ft | 487 kts | 120° |
| 2026-04-26 15:22 | 24.34563 | -76.65386 | 37026 ft | 487 kts | 120° |
| 2026-04-26 15:23 | 24.31488 | -76.58766 | 37026 ft | 488 kts | 120° |
| 2026-04-26 15:23 | 24.28406 | -76.52138 | 37022 ft | 488 kts | 120° |
| 2026-04-26 15:24 | 24.25325 | -76.45522 | 37032 ft | 488 kts | 120° |
| 2026-04-26 15:24 | 24.22238 | -76.38905 | 37019 ft | 488 kts | 120° |
| 2026-04-26 15:25 | 24.19668 | -76.33412 | 37016 ft | 487 kts | 120° |
| 2026-04-26 15:25 | 24.16050 | -76.25689 | 37021 ft | 487 kts | 120° |
| 2026-04-26 15:26 | 24.12975 | -76.19131 | 37018 ft | 487 kts | 120° |
| 2026-04-26 15:26 | 24.09877 | -76.12527 | 37017 ft | 488 kts | 120° |
| 2026-04-26 15:27 | 24.06778 | -76.05921 | 37020 ft | 488 kts | 120° |
| 2026-04-26 15:27 | 24.03673 | -75.99322 | 37014 ft | 488 kts | 120° |
| 2026-04-26 15:28 | 24.00551 | -75.92711 | 37024 ft | 489 kts | 120° |
| 2026-04-26 15:28 | 23.97437 | -75.86106 | 37018 ft | 489 kts | 120° |
| 2026-04-26 15:29 | 23.94330 | -75.79514 | 37022 ft | 488 kts | 120° |
| 2026-04-26 15:30 | 23.88074 | -75.66332 | 37015 ft | 488 kts | 121° |
| 2026-04-26 15:30 | 23.84951 | -75.59750 | 37015 ft | 488 kts | 121° |
| 2026-04-26 15:31 | 23.80264 | -75.49881 | 37018 ft | 488 kts | 121° |
| 2026-04-26 15:32 | 23.76090 | -75.41122 | 37015 ft | 488 kts | 121° |
| 2026-04-26 15:32 | 23.72443 | -75.33486 | 37016 ft | 488 kts | 121° |
| 2026-04-26 15:33 | 23.69304 | -75.26912 | 37015 ft | 488 kts | 121° |
| 2026-04-26 15:33 | 23.66157 | -75.20341 | 37015 ft | 488 kts | 121° |
| 2026-04-26 15:34 | 23.63007 | -75.13778 | 37009 ft | 488 kts | 121° |
| 2026-04-26 15:34 | 23.59861 | -75.07223 | 37007 ft | 488 kts | 121° |
| 2026-04-26 15:35 | 23.56709 | -75.00662 | 37008 ft | 488 kts | 121° |
| 2026-04-26 15:35 | 23.53555 | -74.94110 | 37006 ft | 488 kts | 121° |
| 2026-04-26 15:36 | 23.50395 | -74.87554 | 37006 ft | 489 kts | 121° |
| 2026-04-26 15:36 | 23.47234 | -74.80998 | 37009 ft | 489 kts | 121° |
| 2026-04-26 15:37 | 23.44066 | -74.74435 | 37012 ft | 489 kts | 121° |
| 2026-04-26 15:37 | 23.40915 | -74.67926 | 37012 ft | 490 kts | 121° |
| 2026-04-26 15:38 | 23.37744 | -74.61369 | 37013 ft | 490 kts | 121° |
| 2026-04-26 15:38 | 23.34559 | -74.54811 | 37011 ft | 490 kts | 122° |
| 2026-04-26 15:39 | 23.31371 | -74.48262 | 37012 ft | 490 kts | 122° |
| 2026-04-26 15:39 | 23.28723 | -74.42816 | 37010 ft | 490 kts | 122° |
| 2026-04-26 15:40 | 23.24996 | -74.35151 | 37006 ft | 490 kts | 122° |
| 2026-04-26 15:40 | 23.21803 | -74.28599 | 37007 ft | 491 kts | 122° |
| 2026-04-26 15:41 | 23.18603 | -74.22049 | 37007 ft | 491 kts | 122° |
| 2026-04-26 15:41 | 23.15396 | -74.15493 | 37006 ft | 491 kts | 122° |
| 2026-04-26 15:42 | 23.12185 | -74.08946 | 37007 ft | 491 kts | 122° |
| 2026-04-26 15:42 | 23.08975 | -74.02392 | 37005 ft | 492 kts | 122° |
| 2026-04-26 15:43 | 23.05765 | -73.95834 | 37004 ft | 492 kts | 122° |
| 2026-04-26 15:44 | 23.00956 | -73.86039 | 37003 ft | 492 kts | 122° |
| 2026-04-26 15:44 | 22.96108 | -73.76216 | 36993 ft | 493 kts | 123° |
| 2026-04-26 15:45 | 22.91256 | -73.66371 | 36994 ft | 494 kts | 123° |
| 2026-04-26 15:46 | 22.86376 | -73.56517 | 36994 ft | 495 kts | 123° |
| 2026-04-26 15:46 | 22.83668 | -73.51052 | 36995 ft | 495 kts | 123° |
| 2026-04-26 15:47 | 22.78228 | -73.40075 | 36989 ft | 496 kts | 123° |
| 2026-04-26 15:48 | 22.74956 | -73.33498 | 36992 ft | 496 kts | 124° |
| 2026-04-26 15:48 | 22.71675 | -73.26910 | 36993 ft | 497 kts | 124° |
| 2026-04-26 15:49 | 22.68388 | -73.20318 | 36995 ft | 498 kts | 124° |
| 2026-04-26 15:49 | 22.65097 | -73.13717 | 36997 ft | 498 kts | 124° |
| 2026-04-26 15:50 | 22.61801 | -73.07120 | 36998 ft | 499 kts | 124° |
| 2026-04-26 15:50 | 22.58498 | -73.00517 | 37000 ft | 499 kts | 124° |
| 2026-04-26 15:51 | 22.55203 | -72.93957 | 37002 ft | 499 kts | 124° |
| 2026-04-26 15:51 | 22.51895 | -72.87356 | 37000 ft | 499 kts | 124° |
| 2026-04-26 15:52 | 22.48589 | -72.80757 | 36993 ft | 499 kts | 125° |
| 2026-04-26 15:52 | 22.45271 | -72.74162 | 36993 ft | 499 kts | 125° |
| 2026-04-26 15:53 | 22.41947 | -72.67569 | 36987 ft | 500 kts | 125° |
| 2026-04-26 15:53 | 22.38621 | -72.60971 | 36990 ft | 500 kts | 125° |
| 2026-04-26 15:54 | 22.35288 | -72.54371 | 36991 ft | 501 kts | 126° |
| 2026-04-26 15:54 | 22.31949 | -72.47764 | 36996 ft | 501 kts | 126° |
| 2026-04-26 15:55 | 22.28600 | -72.41154 | 36990 ft | 502 kts | 126° |
| 2026-04-26 15:55 | 22.25252 | -72.34537 | 36993 ft | 503 kts | 126° |
| 2026-04-26 15:56 | 22.21891 | -72.27917 | 36992 ft | 503 kts | 126° |
| 2026-04-26 15:56 | 22.18547 | -72.21344 | 36995 ft | 503 kts | 126° |
| 2026-04-26 15:57 | 22.15188 | -72.14732 | 37000 ft | 503 kts | 126° |
| 2026-04-26 15:57 | 22.11823 | -72.08115 | 37003 ft | 503 kts | 126° |
| 2026-04-26 15:58 | 22.08447 | -72.01505 | 37009 ft | 503 kts | 126° |
| 2026-04-26 15:58 | 22.05072 | -71.94898 | 37007 ft | 503 kts | 126° |
| 2026-04-26 15:59 | 22.01697 | -71.88300 | 37005 ft | 503 kts | 126° |
| 2026-04-26 15:59 | 21.98320 | -71.81702 | 37013 ft | 502 kts | 126° |
| 2026-04-26 16:00 | 21.94946 | -71.75118 | 37011 ft | 502 kts | 127° |
| 2026-04-26 16:00 | 21.91573 | -71.68546 | 37007 ft | 501 kts | 127° |
| 2026-04-26 16:01 | 21.88200 | -71.61972 | 37009 ft | 501 kts | 127° |
| 2026-04-26 16:01 | 21.84849 | -71.55461 | 37019 ft | 500 kts | 127° |
| 2026-04-26 16:02 | 21.81476 | -71.48911 | 37014 ft | 500 kts | 127° |
| 2026-04-26 16:02 | 21.78108 | -71.42375 | 37013 ft | 499 kts | 127° |
| 2026-04-26 16:03 | 21.74730 | -71.35848 | 37009 ft | 499 kts | 127° |
| 2026-04-26 16:03 | 21.71356 | -71.29332 | 37009 ft | 498 kts | 127° |
| 2026-04-26 16:04 | 21.67990 | -71.22816 | 37002 ft | 498 kts | 127° |
| 2026-04-26 16:04 | 21.64628 | -71.16308 | 37004 ft | 498 kts | 127° |
| 2026-04-26 16:05 | 21.61253 | -71.09813 | 37002 ft | 498 kts | 127° |
| 2026-04-26 16:05 | 21.58421 | -71.04441 | 36998 ft | 494 kts | 131° |
| 2026-04-26 16:06 | 21.54258 | -70.98747 | 36997 ft | 481 kts | 140° |
| 2026-04-26 16:06 | 21.49153 | -70.92436 | 36998 ft | 481 kts | 140° |
| 2026-04-26 16:07 | 21.44766 | -70.87007 | 36999 ft | 481 kts | 140° |
| 2026-04-26 16:07 | 21.41091 | -70.82459 | 37001 ft | 481 kts | 140° |
| 2026-04-26 16:08 | 21.36702 | -70.77035 | 37003 ft | 481 kts | 140° |
| 2026-04-26 16:08 | 21.32343 | -70.71658 | 37002 ft | 481 kts | 140° |
| 2026-04-26 16:09 | 21.27967 | -70.66239 | 36998 ft | 481 kts | 140° |
| 2026-04-26 16:09 | 21.23583 | -70.60827 | 36999 ft | 481 kts | 140° |
| 2026-04-26 16:10 | 21.19189 | -70.55426 | 37000 ft | 481 kts | 140° |
| 2026-04-26 16:10 | 21.14789 | -70.50029 | 37002 ft | 480 kts | 140° |
| 2026-04-26 16:11 | 21.10401 | -70.44638 | 37006 ft | 480 kts | 140° |
| 2026-04-26 16:11 | 21.06013 | -70.39247 | 37005 ft | 480 kts | 140° |
| 2026-04-26 16:12 | 21.01630 | -70.33863 | 37001 ft | 480 kts | 140° |
| 2026-04-26 16:12 | 20.95042 | -70.25802 | 36998 ft | 480 kts | 140° |
| 2026-04-26 16:13 | 20.90649 | -70.20433 | 36996 ft | 479 kts | 140° |
| 2026-04-26 16:13 | 20.86262 | -70.15064 | 36993 ft | 479 kts | 140° |
| 2026-04-26 16:14 | 20.81875 | -70.09701 | 36993 ft | 479 kts | 140° |
| 2026-04-26 16:15 | 20.75313 | -70.01703 | 37002 ft | 479 kts | 140° |
| 2026-04-26 16:15 | 20.70922 | -69.96358 | 37003 ft | 479 kts | 140° |
| 2026-04-26 16:16 | 20.64335 | -69.88339 | 36994 ft | 478 kts | 140° |
| 2026-04-26 16:16 | 20.59946 | -69.83000 | 36994 ft | 478 kts | 140° |
| 2026-04-26 16:17 | 20.55554 | -69.77670 | 36992 ft | 478 kts | 140° |
| 2026-04-26 16:17 | 20.51153 | -69.72344 | 36991 ft | 478 kts | 140° |
| 2026-04-26 16:18 | 20.44562 | -69.64357 | 36994 ft | 478 kts | 140° |
| 2026-04-26 16:19 | 20.37971 | -69.56375 | 36997 ft | 478 kts | 140° |
| 2026-04-26 16:20 | 20.31371 | -69.48398 | 37001 ft | 478 kts | 140° |
| 2026-04-26 16:20 | 20.24763 | -69.40432 | 37009 ft | 478 kts | 140° |
| 2026-04-26 16:21 | 20.20394 | -69.35166 | 37011 ft | 478 kts | 140° |
| 2026-04-26 16:21 | 20.15992 | -69.29871 | 37010 ft | 477 kts | 140° |
| 2026-04-26 16:22 | 20.11603 | -69.24593 | 37007 ft | 476 kts | 140° |
| 2026-04-26 16:22 | 20.07208 | -69.19312 | 37010 ft | 476 kts | 140° |
| 2026-04-26 16:23 | 20.02814 | -69.14041 | 37009 ft | 476 kts | 140° |
| 2026-04-26 16:23 | 19.98419 | -69.08774 | 36998 ft | 476 kts | 140° |
| 2026-04-26 16:24 | 19.94033 | -69.03513 | 36999 ft | 476 kts | 140° |
| 2026-04-26 16:24 | 19.89645 | -68.98255 | 37002 ft | 475 kts | 140° |
| 2026-04-26 16:25 | 19.85270 | -68.92991 | 37006 ft | 476 kts | 139° |
| 2026-04-26 16:25 | 19.81056 | -68.87536 | 37007 ft | 479 kts | 136° |
| 2026-04-26 16:26 | 19.77621 | -68.82923 | 37006 ft | 479 kts | 136° |
| 2026-04-26 16:26 | 19.72788 | -68.76519 | 37009 ft | 478 kts | 137° |
| 2026-04-26 16:27 | 19.68592 | -68.71062 | 37007 ft | 477 kts | 137° |
| 2026-04-26 16:27 | 19.64387 | -68.65610 | 37009 ft | 477 kts | 137° |
| 2026-04-26 16:28 | 19.60192 | -68.60150 | 37007 ft | 477 kts | 137° |
| 2026-04-26 16:28 | 19.56000 | -68.54696 | 37015 ft | 477 kts | 137° |
| 2026-04-26 16:29 | 19.51799 | -68.49253 | 37013 ft | 477 kts | 137° |
| 2026-04-26 16:29 | 19.47605 | -68.43823 | 37010 ft | 476 kts | 137° |
| 2026-04-26 16:30 | 19.43414 | -68.38380 | 37013 ft | 476 kts | 137° |
| 2026-04-26 16:30 | 19.39224 | -68.32945 | 37012 ft | 476 kts | 137° |
| 2026-04-26 16:31 | 19.35031 | -68.27527 | 37010 ft | 475 kts | 137° |
| 2026-04-26 16:31 | 19.30838 | -68.22124 | 37010 ft | 475 kts | 137° |
| 2026-04-26 16:32 | 19.27360 | -68.17624 | 37011 ft | 475 kts | 137° |
| 2026-04-26 16:32 | 19.22484 | -68.11311 | 37008 ft | 474 kts | 137° |
| 2026-04-26 16:33 | 19.18328 | -68.05948 | 37010 ft | 474 kts | 137° |
| 2026-04-26 16:33 | 19.14147 | -68.00571 | 37008 ft | 473 kts | 137° |
| 2026-04-26 16:34 | 19.09964 | -67.95198 | 37008 ft | 473 kts | 137° |
| 2026-04-26 16:34 | 19.05788 | -67.89825 | 37004 ft | 473 kts | 137° |
| 2026-04-26 16:35 | 19.01614 | -67.84461 | 37006 ft | 472 kts | 137° |
| 2026-04-26 16:35 | 18.97437 | -67.79102 | 36998 ft | 472 kts | 137° |
| 2026-04-26 16:36 | 18.93262 | -67.73749 | 37009 ft | 472 kts | 137° |
| 2026-04-26 16:36 | 18.89085 | -67.68397 | 37012 ft | 472 kts | 137° |
| 2026-04-26 16:37 | 18.84913 | -67.63049 | 37005 ft | 472 kts | 137° |
| 2026-04-26 16:37 | 18.80739 | -67.57709 | 36999 ft | 471 kts | 137° |
| 2026-04-26 16:38 | 18.76563 | -67.52376 | 36997 ft | 471 kts | 137° |
| 2026-04-26 16:38 | 18.72409 | -67.47084 | 36997 ft | 471 kts | 138° |
| 2026-04-26 16:39 | 18.68236 | -67.41760 | 37000 ft | 471 kts | 137° |
| 2026-04-26 16:39 | 18.64061 | -67.36433 | 37001 ft | 471 kts | 138° |
| 2026-04-26 16:40 | 18.59886 | -67.31113 | 37007 ft | 471 kts | 138° |
| 2026-04-26 16:40 | 18.55707 | -67.25795 | 37010 ft | 471 kts | 138° |
| 2026-04-26 16:41 | 18.51534 | -67.20492 | 37013 ft | 470 kts | 138° |
| 2026-04-26 16:41 | 18.48005 | -67.14564 | 37014 ft | 488 kts | 120° |
| 2026-04-26 16:42 | 18.45597 | -67.07833 | 37007 ft | 491 kts | 117° |
| 2026-04-26 16:42 | 18.43215 | -67.01090 | 37003 ft | 491 kts | 117° |
| 2026-04-26 16:43 | 18.40822 | -66.94348 | 36999 ft | 491 kts | 117° |
| 2026-04-26 16:43 | 18.38427 | -66.87603 | 36995 ft | 491 kts | 117° |
| 2026-04-26 16:44 | 18.36040 | -66.80864 | 36994 ft | 491 kts | 117° |
| 2026-04-26 16:44 | 18.33659 | -66.74172 | 36994 ft | 491 kts | 117° |
| 2026-04-26 16:45 | 18.31263 | -66.67447 | 36994 ft | 491 kts | 117° |
| 2026-04-26 16:45 | 18.28858 | -66.60713 | 37001 ft | 491 kts | 117° |
| 2026-04-26 16:46 | 18.26453 | -66.53982 | 36993 ft | 491 kts | 117° |
| 2026-04-26 16:46 | 18.24056 | -66.47257 | 36994 ft | 491 kts | 117° |
| 2026-04-26 16:47 | 18.21651 | -66.40530 | 36994 ft | 491 kts | 117° |
| 2026-04-26 16:47 | 18.19238 | -66.33806 | 36994 ft | 491 kts | 117° |
| 2026-04-26 16:48 | 18.16828 | -66.27085 | 37004 ft | 492 kts | 117° |
| 2026-04-26 16:48 | 18.14412 | -66.20355 | 36996 ft | 492 kts | 117° |
| 2026-04-26 16:49 | 18.11991 | -66.13643 | 36997 ft | 491 kts | 117° |
| 2026-04-26 16:49 | 18.09571 | -66.06920 | 37001 ft | 491 kts | 117° |
| 2026-04-26 16:50 | 18.07165 | -66.00250 | 37000 ft | 491 kts | 117° |
| 2026-04-26 16:50 | 18.04743 | -65.93542 | 36994 ft | 491 kts | 117° |
| 2026-04-26 16:51 | 18.02317 | -65.86824 | 37000 ft | 492 kts | 117° |
| 2026-04-26 16:51 | 17.99884 | -65.80105 | 37002 ft | 492 kts | 117° |
| 2026-04-26 16:52 | 17.98258 | -65.75615 | 37006 ft | 492 kts | 117° |
| 2026-04-26 16:52 | 17.95019 | -65.66685 | 37007 ft | 491 kts | 117° |
| 2026-04-26 16:53 | 17.92586 | -65.59987 | 37009 ft | 491 kts | 117° |
| 2026-04-26 16:53 | 17.90150 | -65.53285 | 37012 ft | 491 kts | 117° |
| 2026-04-26 16:54 | 17.87720 | -65.46595 | 37012 ft | 490 kts | 117° |
| 2026-04-26 16:54 | 17.85280 | -65.39917 | 37013 ft | 490 kts | 117° |
| 2026-04-26 16:55 | 17.82842 | -65.33238 | 37013 ft | 489 kts | 117° |
| 2026-04-26 16:55 | 17.80406 | -65.26572 | 37012 ft | 489 kts | 117° |
| 2026-04-26 16:56 | 17.76771 | -65.16643 | 37011 ft | 488 kts | 117° |
| 2026-04-26 16:57 | 17.74331 | -65.09993 | 37016 ft | 488 kts | 117° |
| 2026-04-26 16:57 | 17.70680 | -65.00040 | 37036 ft | 487 kts | 117° |
| 2026-04-26 16:58 | 17.69050 | -64.95608 | 37042 ft | 487 kts | 117° |
| 2026-04-26 16:59 | 17.64583 | -64.83463 | 37049 ft | 488 kts | 117° |
| 2026-04-26 17:00 | 17.60103 | -64.71325 | 37045 ft | 488 kts | 117° |
| 2026-04-26 17:00 | 17.56436 | -64.61382 | 37029 ft | 488 kts | 117° |
| 2026-04-26 17:01 | 17.53983 | -64.54756 | 37021 ft | 488 kts | 118° |
| 2026-04-26 17:01 | 17.51517 | -64.48127 | 37024 ft | 487 kts | 117° |
| 2026-04-26 17:02 | 17.49058 | -64.41515 | 37020 ft | 487 kts | 117° |
| 2026-04-26 17:02 | 17.46606 | -64.34901 | 37023 ft | 487 kts | 117° |
| 2026-04-26 17:03 | 17.44155 | -64.28293 | 37020 ft | 486 kts | 117° |
| 2026-04-26 17:03 | 17.41701 | -64.21696 | 37020 ft | 486 kts | 117° |
| 2026-04-26 17:04 | 17.39249 | -64.15114 | 37017 ft | 485 kts | 117° |
| 2026-04-26 17:04 | 17.36793 | -64.08540 | 37015 ft | 485 kts | 118° |
| 2026-04-26 17:05 | 17.34331 | -64.01968 | 37016 ft | 484 kts | 117° |
| 2026-04-26 17:05 | 17.31883 | -63.95407 | 37013 ft | 484 kts | 117° |
| 2026-04-26 17:06 | 17.29446 | -63.88897 | 37017 ft | 483 kts | 117° |
| 2026-04-26 17:06 | 17.26991 | -63.82351 | 37019 ft | 483 kts | 117° |
| 2026-04-26 17:07 | 17.24538 | -63.75820 | 37022 ft | 482 kts | 117° |
| 2026-04-26 17:07 | 17.22085 | -63.69301 | 37023 ft | 481 kts | 117° |
| 2026-04-26 17:08 | 17.19636 | -63.62790 | 37024 ft | 481 kts | 117° |
| 2026-04-26 17:08 | 17.17193 | -63.56287 | 37027 ft | 480 kts | 117° |
| 2026-04-26 17:09 | 17.15154 | -63.50881 | 37025 ft | 480 kts | 117° |
| 2026-04-26 17:09 | 17.12293 | -63.43302 | 37017 ft | 480 kts | 117° |
| 2026-04-26 17:10 | 17.09831 | -63.36806 | 35888 ft | 485 kts | 117° |
| 2026-04-26 17:10 | 17.08572 | -63.33489 | 34489 ft | 494 kts | 117° |
| 2026-04-26 17:10 | 17.07311 | -63.30153 | 33378 ft | 493 kts | 116° |
| 2026-04-26 17:11 | 17.06071 | -63.26858 | 32750 ft | 479 kts | 116° |
| 2026-04-26 17:11 | 17.04870 | -63.23658 | 32169 ft | 466 kts | 116° |
| 2026-04-26 17:11 | 17.03699 | -63.20551 | 31609 ft | 454 kts | 116° |
| 2026-04-26 17:11 | 17.02554 | -63.17519 | 31068 ft | 444 kts | 116° |
| 2026-04-26 17:12 | 17.00333 | -63.11662 | 30023 ft | 424 kts | 116° |
| 2026-04-26 17:12 | 16.99247 | -63.08811 | 29461 ft | 421 kts | 116° |
| 2026-04-26 17:13 | 16.97117 | -63.03225 | 28504 ft | 412 kts | 116° |
| 2026-04-26 17:13 | 16.96061 | -63.00460 | 28049 ft | 408 kts | 117° |
| 2026-04-26 17:13 | 16.93733 | -62.95108 | 27160 ft | 402 kts | 121° |
| 2026-04-26 17:14 | 16.92474 | -62.92511 | 26721 ft | 399 kts | 122° |
| 2026-04-26 17:14 | 16.89943 | -62.87388 | 25839 ft | 396 kts | 121° |
| 2026-04-26 17:14 | 16.88700 | -62.84834 | 25396 ft | 394 kts | 121° |
| 2026-04-26 17:15 | 16.86258 | -62.79721 | 24463 ft | 393 kts | 120° |
| 2026-04-26 17:15 | 16.85047 | -62.77165 | 23975 ft | 393 kts | 120° |
| 2026-04-26 17:15 | 16.83839 | -62.74612 | 23472 ft | 393 kts | 120° |
| 2026-04-26 17:16 | 16.82631 | -62.72057 | 22927 ft | 392 kts | 120° |
| 2026-04-26 17:16 | 16.81425 | -62.69512 | 22422 ft | 390 kts | 120° |
| 2026-04-26 17:16 | 16.80225 | -62.66981 | 21943 ft | 388 kts | 120° |
| 2026-04-26 17:16 | 16.79029 | -62.64463 | 21452 ft | 387 kts | 119° |
| 2026-04-26 17:17 | 16.77840 | -62.61958 | 20964 ft | 385 kts | 119° |
| 2026-04-26 17:17 | 16.76647 | -62.59451 | 20488 ft | 384 kts | 119° |
| 2026-04-26 17:17 | 16.75461 | -62.56962 | 19996 ft | 384 kts | 119° |
| 2026-04-26 17:17 | 16.74271 | -62.54470 | 19520 ft | 383 kts | 119° |
| 2026-04-26 17:18 | 16.73084 | -62.51985 | 19039 ft | 382 kts | 119° |
| 2026-04-26 17:18 | 16.71900 | -62.49505 | 18581 ft | 382 kts | 118° |
| 2026-04-26 17:18 | 16.70740 | -62.47070 | 18117 ft | 380 kts | 118° |
| 2026-04-26 17:18 | 16.69571 | -62.44617 | 17781 ft | 374 kts | 118° |
| 2026-04-26 17:19 | 16.67263 | -62.39785 | 16873 ft | 370 kts | 118° |
| 2026-04-26 17:19 | 16.66120 | -62.37389 | 16446 ft | 368 kts | 118° |
| 2026-04-26 17:19 | 16.64984 | -62.35008 | 16026 ft | 365 kts | 118° |
| 2026-04-26 17:20 | 16.63854 | -62.32641 | 15616 ft | 363 kts | 118° |
| 2026-04-26 17:20 | 16.63110 | -62.31085 | 15345 ft | 361 kts | 118° |
| 2026-04-26 17:20 | 16.61618 | -62.27964 | 14818 ft | 358 kts | 118° |
| 2026-04-26 17:20 | 16.60511 | -62.25650 | 14419 ft | 356 kts | 118° |
| 2026-04-26 17:21 | 16.59409 | -62.23346 | 14041 ft | 354 kts | 118° |
| 2026-04-26 17:21 | 16.58315 | -62.21054 | 13636 ft | 352 kts | 118° |
| 2026-04-26 17:21 | 16.57227 | -62.18778 | 13207 ft | 349 kts | 118° |
| 2026-04-26 17:21 | 16.56071 | -62.16580 | 12933 ft | 340 kts | 126° |
| 2026-04-26 17:22 | 16.54766 | -62.14571 | 12800 ft | 328 kts | 126° |
| 2026-04-26 17:22 | 16.53521 | -62.12641 | 12377 ft | 316 kts | 126° |
| 2026-04-26 17:22 | 16.52306 | -62.10753 | 11819 ft | 311 kts | 126° |
| 2026-04-26 17:22 | 16.51111 | -62.08891 | 11231 ft | 308 kts | 126° |
| 2026-04-26 17:23 | 16.49931 | -62.07047 | 10648 ft | 304 kts | 126° |
| 2026-04-26 17:23 | 16.48762 | -62.05227 | 10098 ft | 301 kts | 126° |
| 2026-04-26 17:23 | 16.47601 | -62.03428 | 9499 ft | 297 kts | 126° |
| 2026-04-26 17:23 | 16.46471 | -62.01677 | 8906 ft | 294 kts | 126° |
| 2026-04-26 17:24 | 16.45341 | -61.99923 | 8303 ft | 290 kts | 126° |
| 2026-04-26 17:24 | 16.44228 | -61.98197 | 7772 ft | 284 kts | 126° |
| 2026-04-26 17:24 | 16.43141 | -61.96509 | 7299 ft | 276 kts | 126° |
| 2026-04-26 17:24 | 16.42093 | -61.94882 | 6881 ft | 267 kts | 126° |
| 2026-04-26 17:25 | 16.41070 | -61.93292 | 6470 ft | 262 kts | 126° |
| 2026-04-26 17:25 | 16.40061 | -61.91728 | 6027 ft | 257 kts | 126° |
| 2026-04-26 17:25 | 16.39074 | -61.90197 | 5626 ft | 252 kts | 126° |
| 2026-04-26 17:25 | 16.38113 | -61.88709 | 5317 ft | 242 kts | 126° |
| 2026-04-26 17:26 | 16.37207 | -61.87305 | 5225 ft | 225 kts | 126° |
| 2026-04-26 17:26 | 16.36368 | -61.86007 | 5162 ft | 207 kts | 126° |
| 2026-04-26 17:26 | 16.35587 | -61.84798 | 5093 ft | 198 kts | 126° |
| 2026-04-26 17:26 | 16.34821 | -61.83614 | 5014 ft | 197 kts | 126° |
| 2026-04-26 17:27 | 16.34061 | -61.82437 | 4923 ft | 195 kts | 127° |
| 2026-04-26 17:27 | 16.33300 | -61.81264 | 4849 ft | 195 kts | 127° |
| 2026-04-26 17:27 | 16.32544 | -61.80099 | 4761 ft | 194 kts | 126° |
| 2026-04-26 17:27 | 16.31792 | -61.78938 | 4675 ft | 193 kts | 126° |
| 2026-04-26 17:28 | 16.31128 | -61.77726 | 4542 ft | 195 kts | 110° |
| 2026-04-26 17:28 | 16.30807 | -61.76350 | 4311 ft | 195 kts | 104° |
| 2026-04-26 17:28 | 16.30555 | -61.74999 | 4076 ft | 186 kts | 104° |
| 2026-04-26 17:28 | 16.30317 | -61.73701 | 3804 ft | 178 kts | 106° |
| 2026-04-26 17:29 | 16.30092 | -61.72475 | 3570 ft | 167 kts | 106° |
| 2026-04-26 17:29 | 16.29950 | -61.71702 | 3425 ft | 162 kts | 106° |
| 2026-04-26 17:29 | 16.29679 | -61.70232 | 3176 ft | 149 kts | 105° |
| 2026-04-26 17:29 | 16.29487 | -61.69193 | 2953 ft | 144 kts | 105° |
| 2026-04-26 17:30 | 16.29301 | -61.68182 | 2738 ft | 140 kts | 105° |
| 2026-04-26 17:30 | 16.29119 | -61.67200 | 2555 ft | 137 kts | 106° |
| 2026-04-26 17:30 | 16.28940 | -61.66229 | 2368 ft | 137 kts | 105° |
| 2026-04-26 17:30 | 16.28761 | -61.65262 | 2178 ft | 136 kts | 105° |
| 2026-04-26 17:31 | 16.28583 | -61.64294 | 1992 ft | 137 kts | 104° |
| 2026-04-26 17:31 | 16.28405 | -61.63327 | 1799 ft | 135 kts | 106° |
| 2026-04-26 17:31 | 16.28229 | -61.62352 | 1533 ft | 138 kts | 104° |
| 2026-04-26 17:31 | 16.28065 | -61.61384 | 1311 ft | 134 kts | 103° |
| 2026-04-26 17:32 | 16.27880 | -61.60433 | 1171 ft | 135 kts | 105° |
| 2026-04-26 17:32 | 16.27696 | -61.59475 | 982 ft | 135 kts | 104° |
| 2026-04-26 17:32 | 16.27517 | -61.58521 | 768 ft | 134 kts | 102° |
| 2026-04-26 17:32 | 16.27342 | -61.57560 | 575 ft | 137 kts | 102° |
| 2026-04-26 17:33 | 16.27169 | -61.56592 | 402 ft | 136 kts | 102° |
| 2026-04-26 17:33 | 16.26991 | -61.55623 | 296 ft | 137 kts | 103° |
| 2026-04-26 17:33 | 16.26810 | -61.54649 | 121 ft | 137 kts | 101° |
| 2026-04-26 17:34 | 16.26493 | -61.52999 | 26 ft | 59 kts | 101° |
| 2026-04-26 17:34 | 16.26436 | -61.52699 | 28 ft | 35 kts | 99° |
| 2026-04-26 17:34 | 16.26397 | -61.52455 | 33 ft | 33 kts | 101° |
| 2026-04-26 17:34 | 16.26366 | -61.52237 | 39 ft | 21 kts | 77° |
| 2026-04-26 17:35 | 16.26411 | -61.52190 | 39 ft | 5 kts | 4° |
| 2026-04-26 17:35 | 16.26453 | -61.52203 | 39 ft | 9 kts | 348° |
| 2026-04-26 17:35 | 16.26538 | -61.52207 | 35 ft | 16 kts | 8° |
| 2026-04-26 17:35 | 16.26685 | -61.52180 | 26 ft | 25 kts | 349° |
| 2026-04-26 17:36 | 16.26741 | -61.52276 | 24 ft | 13 kts | 275° |
| 2026-04-26 17:36 | 16.26759 | -61.52355 | 24 ft | 12 kts | 285° |
| 2026-04-26 17:36 | 16.26780 | -61.52466 | 23 ft | 19 kts | 271° |
| 2026-04-26 17:36 | 16.26806 | -61.52597 | 23 ft | 12 kts | 295° |
| 2026-04-26 17:37 | 16.26829 | -61.52607 | 23 ft | 4 kts | 5° |
| 2026-04-26 17:37 | 16.26875 | -61.52609 | 23 ft | 6 kts | 350° |
| 2026-04-26 17:37 | 16.26900 | -61.52613 | 23 ft | 2 kts | 349° |
| 2026-04-26 17:38 | 16.26901 | -61.52614 | 23 ft | 0 kts | 349° |